createdAt,value
2022-08-18T00:01:18.899Z,70.36
2022-08-18T00:03:57.081Z,70.20
2022-08-18T00:06:45.488Z,70.87
2022-08-18T00:09:12.636Z,71.21
2022-08-18T00:11:42.275Z,70.71
2022-08-18T00:14:13.869Z,71.72
2022-08-18T00:17:01.487Z,70.05
2022-08-18T00:19:45.962Z,70.58
2022-08-18T00:22:23.513Z,70.62
2022-08-18T00:24:56.256Z,70.84
2022-08-18T00:27:33.513Z,70.40
2022-08-18T00:30:06.872Z,70.75
2022-08-18T00:33:01.496Z,70.96
2022-08-18T00:36:05.330Z,71.10
2022-08-18T00:39:09.385Z,71.50
2022-08-18T00:42:13.231Z,71.44
2022-08-18T00:45:33.093Z,71.18
2022-08-18T00:48:37.062Z,71.19
2022-08-18T00:51:40.943Z,70.56
2022-08-18T00:54:45.058Z,70.96
2022-08-18T00:57:48.670Z,70.93
2022-08-18T01:00:54.917Z,70.91
2022-08-18T01:03:58.598Z,71.42
2022-08-18T01:06:58.547Z,71.15
2022-08-18T01:09:25.092Z,71.25
2022-08-18T01:11:51.618Z,71.06
2022-08-18T01:14:19.475Z,70.98
2022-08-18T01:17:08.585Z,71.39
2022-08-18T01:19:54.266Z,71.21
2022-08-18T01:22:54.531Z,71.62
2022-08-18T01:25:40.857Z,71.44
2022-08-18T01:28:16.536Z,71.63
2022-08-18T01:30:51.995Z,71.84
2022-08-18T01:33:30.020Z,71.83
2022-08-18T01:36:04.269Z,72.07
2022-08-18T01:38:40.573Z,72.19
2022-08-18T01:41:28.666Z,72.96
2022-08-18T01:43:54.098Z,72.84
2022-08-18T01:46:21.614Z,72.94
2022-08-18T01:48:48.925Z,73.48
2022-08-18T01:51:18.026Z,73.80
2022-08-18T01:53:45.034Z,73.97
2022-08-18T01:56:13.038Z,73.71
2022-08-18T01:58:45.573Z,73.35
2022-08-18T02:01:13.241Z,73.90
2022-08-18T02:03:44.971Z,74.09
2022-08-18T02:06:19.199Z,73.75
2022-08-18T02:09:01.583Z,73.73
2022-08-18T02:11:28.046Z,74.27
2022-08-18T02:13:54.560Z,74.25
2022-08-18T02:16:21.059Z,74.25
2022-08-18T02:18:48.960Z,74.33
2022-08-18T02:21:19.556Z,74.23
2022-08-18T02:23:54.188Z,74.14
2022-08-18T02:26:24.037Z,73.88
2022-08-18T02:28:58.580Z,74.70
2022-08-18T02:31:25.817Z,74.44
2022-08-18T02:33:52.846Z,74.51
2022-08-18T02:36:20.396Z,74.62
2022-08-18T02:38:59.443Z,73.43
2022-08-18T02:41:29.908Z,73.98
2022-08-18T02:43:57.657Z,74.60
2022-08-18T02:46:25.017Z,74.63
2022-08-18T02:49:03.612Z,74.99
2022-08-18T02:51:34.918Z,74.65
2022-08-18T02:54:01.735Z,74.74
2022-08-18T02:56:40.478Z,75.22
2022-08-18T02:59:09.877Z,75.18
2022-08-18T03:01:44.900Z,75.82
2022-08-18T03:04:15.631Z,75.59
2022-08-18T03:06:49.462Z,75.61
2022-08-18T03:09:17.988Z,75.82
2022-08-18T03:11:45.167Z,75.69
2022-08-18T03:14:12.414Z,75.88
2022-08-18T03:16:53.249Z,75.90
2022-08-18T03:19:28.401Z,76.06
2022-08-18T03:21:58.176Z,75.98
2022-08-18T03:24:27.232Z,75.93
2022-08-18T03:26:59.586Z,76.63
2022-08-18T03:29:32.475Z,76.60
2022-08-18T03:32:01.488Z,76.58
2022-08-18T03:34:30.486Z,76.84
2022-08-18T03:36:57.171Z,77.37
2022-08-18T03:39:30.683Z,77.88
2022-08-18T03:42:01.048Z,79.19
2022-08-18T03:44:33.851Z,80.12
2022-08-18T03:47:03.053Z,81.16
2022-08-18T03:49:31.156Z,85.16
2022-08-18T03:52:00.769Z,85.54
2022-08-18T03:54:28.250Z,87.34
2022-08-18T03:56:55.983Z,88.90
2022-08-18T03:59:31.642Z,89.38
2022-08-18T04:01:58.148Z,91.49
2022-08-18T04:04:44.675Z,90.94
2022-08-18T04:07:17.357Z,92.22
2022-08-18T04:09:53.692Z,93.29
2022-08-18T04:12:20.161Z,94.21
2022-08-18T04:14:50.039Z,95.24
2022-08-18T04:17:24.283Z,95.94
2022-08-18T04:19:55.556Z,95.89
2022-08-18T04:22:23.058Z,96.15
2022-08-18T04:24:50.248Z,96.12
2022-08-18T04:27:24.123Z,96.49
2022-08-18T04:29:51.022Z,97.02
2022-08-18T04:32:17.519Z,98.83
2022-08-18T04:34:46.621Z,98.71
2022-08-18T04:37:19.574Z,97.40
2022-08-18T04:39:46.573Z,97.08
2022-08-18T04:42:16.199Z,98.15
2022-08-18T04:44:43.215Z,98.81
2022-08-18T04:47:10.121Z,98.64
2022-08-18T04:49:39.153Z,98.54
2022-08-18T04:52:39.740Z,99.32
2022-08-18T04:55:07.956Z,98.71
2022-08-18T04:57:34.811Z,99.32
2022-08-18T05:00:01.811Z,99.09
2022-08-18T05:02:28.548Z,98.76
2022-08-18T05:05:15.694Z,97.88
2022-08-18T05:07:46.476Z,99.32
2022-08-18T05:10:17.644Z,98.86
2022-08-18T05:12:48.735Z,99.12
2022-08-18T05:15:15.231Z,98.57
2022-08-18T05:17:41.762Z,98.61
2022-08-18T05:20:15.742Z,98.74
2022-08-18T05:22:45.384Z,98.44
2022-08-18T05:25:12.645Z,100.00
2022-08-18T05:27:43.571Z,100.00
2022-08-18T05:30:11.393Z,100.00
2022-08-18T05:32:48.583Z,99.86
2022-08-18T05:35:25.120Z,100.00
2022-08-18T05:37:57.236Z,100.00
2022-08-18T05:40:26.429Z,100.00
2022-08-18T05:42:57.350Z,99.53
2022-08-18T05:45:30.737Z,99.64
2022-08-18T05:48:02.654Z,100.00
2022-08-18T05:50:38.737Z,100.00
2022-08-18T05:53:14.609Z,100.00
2022-08-18T05:56:09.754Z,100.00
2022-08-18T06:06:24.756Z,100.00
2022-08-18T06:09:11.153Z,100.00
2022-08-18T06:11:37.655Z,99.59
2022-08-18T06:14:04.933Z,99.27
2022-08-18T06:16:48.756Z,98.91
2022-08-18T06:19:26.968Z,99.25
2022-08-18T06:22:11.245Z,99.87
2022-08-18T06:24:52.106Z,99.38
2022-08-18T06:27:39.889Z,99.68
2022-08-18T06:30:19.429Z,99.95
2022-08-18T06:33:02.379Z,98.54
2022-08-18T06:36:13.104Z,99.22
2022-08-18T06:39:16.844Z,100.00
2022-08-18T06:41:48.818Z,100.00
2022-08-18T06:44:23.579Z,100.00
2022-08-18T06:46:59.392Z,100.00
2022-08-18T06:49:51.670Z,100.00
2022-08-18T06:52:37.580Z,100.00
2022-08-18T06:55:12.905Z,100.00
2022-08-18T06:57:54.743Z,100.00
2022-08-18T07:00:32.381Z,100.00
2022-08-18T07:03:18.037Z,100.00
2022-08-18T07:06:11.549Z,100.00
2022-08-18T07:08:45.715Z,100.00
2022-08-18T07:11:24.262Z,100.00
2022-08-18T07:14:09.482Z,100.00
2022-08-18T07:16:57.957Z,99.72
2022-08-18T07:19:30.550Z,100.00
2022-08-18T07:22:02.236Z,100.00
2022-08-18T07:24:38.612Z,99.47
2022-08-18T07:27:07.927Z,99.29
2022-08-18T07:29:40.167Z,99.61
2022-08-18T07:32:21.479Z,99.61
2022-08-18T07:34:58.081Z,98.07
2022-08-18T07:37:44.803Z,99.99
2022-08-18T07:40:29.193Z,100.00
2022-08-18T07:43:03.251Z,100.00
2022-08-18T07:45:41.057Z,100.00
2022-08-18T07:48:37.211Z,100.00
2022-08-18T07:51:18.579Z,98.89
2022-08-18T07:53:55.671Z,99.41
2022-08-18T07:56:46.673Z,99.01
2022-08-18T07:59:25.290Z,98.89
2022-08-18T08:01:54.724Z,99.58
2022-08-18T08:04:38.435Z,98.69
2022-08-18T08:07:25.409Z,99.04
2022-08-18T08:10:21.276Z,98.17
2022-08-18T08:13:43.839Z,98.48
2022-08-18T08:16:25.501Z,98.30
2022-08-18T08:19:02.438Z,98.04
2022-08-18T08:21:52.942Z,97.73
2022-08-18T08:24:30.111Z,99.35
2022-08-18T08:27:02.580Z,99.60
2022-08-18T08:29:31.905Z,99.92
2022-08-18T08:32:02.180Z,99.90
2022-08-18T08:34:43.880Z,99.77
2022-08-18T08:37:17.293Z,99.82
2022-08-18T08:40:18.859Z,99.35
2022-08-18T08:42:56.893Z,100.00
2022-08-18T08:45:37.765Z,100.00
2022-08-18T08:48:20.859Z,100.00
2022-08-18T08:50:53.117Z,100.00
2022-08-18T08:53:27.727Z,100.00
2022-08-18T08:56:02.402Z,100.00
2022-08-18T08:58:56.318Z,100.00
2022-08-18T09:01:43.616Z,100.00
2022-08-18T09:04:34.022Z,100.00
2022-08-18T09:07:10.147Z,100.00
2022-08-18T09:09:54.733Z,100.00
2022-08-18T09:12:58.900Z,100.00
2022-08-18T09:15:38.099Z,100.00
2022-08-18T09:18:46.762Z,100.00
2022-08-18T09:21:28.228Z,100.00
2022-08-18T09:24:13.880Z,100.00
2022-08-18T09:26:47.059Z,100.00
2022-08-18T09:29:17.676Z,100.00
2022-08-18T09:31:46.052Z,100.00
2022-08-18T09:34:27.949Z,100.00
2022-08-18T09:37:03.308Z,100.00
2022-08-18T09:40:38.724Z,100.00
2022-08-18T09:43:27.148Z,100.00
2022-08-18T09:45:59.637Z,100.00
2022-08-18T09:48:29.353Z,100.00
2022-08-18T09:51:01.588Z,100.00
2022-08-18T09:53:38.248Z,100.00
2022-08-18T09:56:09.089Z,100.00
2022-08-18T09:58:51.083Z,100.00
2022-08-18T10:01:30.257Z,99.43
2022-08-18T10:04:15.045Z,100.00
2022-08-18T10:06:48.433Z,99.09
2022-08-18T10:12:41.959Z,96.74
2022-08-18T10:15:32.843Z,98.53
2022-08-18T10:18:07.556Z,94.61
2022-08-18T10:20:58.661Z,93.34
2022-08-18T10:27:15.294Z,93.18
2022-08-18T10:29:51.701Z,91.82
2022-08-18T10:32:24.870Z,93.77
2022-08-18T10:34:53.832Z,93.15
2022-08-18T10:37:44.616Z,93.64
2022-08-18T10:40:21.162Z,92.58
2022-08-18T10:42:59.304Z,93.26
2022-08-18T10:45:30.644Z,93.76
2022-08-18T10:48:30.230Z,93.72
2022-08-18T10:51:22.923Z,94.85
2022-08-18T10:54:08.495Z,94.78
2022-08-18T10:56:52.362Z,94.39
2022-08-18T10:59:32.221Z,89.99
2022-08-18T11:02:31.053Z,90.51
2022-08-18T11:05:06.749Z,89.41
2022-08-18T11:07:46.784Z,90.92
2022-08-18T11:10:31.920Z,88.86
2022-08-18T11:13:24.792Z,92.76
2022-08-18T11:16:35.169Z,89.30
2022-08-18T11:19:24.009Z,90.28
2022-08-18T11:21:53.234Z,88.85
2022-08-18T11:24:24.992Z,91.03
2022-08-18T11:27:24.028Z,87.21
2022-08-18T11:29:54.458Z,87.32
2022-08-18T11:32:27.437Z,90.62
2022-08-18T11:35:11.108Z,89.11
2022-08-18T11:37:49.195Z,88.55
2022-08-18T11:43:29.680Z,88.85
2022-08-18T11:46:39.926Z,87.50
2022-08-18T11:49:45.338Z,85.54
2022-08-18T11:52:36.023Z,83.28
2022-08-18T11:55:16.510Z,83.71
2022-08-18T11:57:59.020Z,83.36
2022-08-18T12:00:42.621Z,84.50
2022-08-18T12:03:32.203Z,82.72
2022-08-18T12:06:27.080Z,81.66
2022-08-18T12:09:03.095Z,81.03
2022-08-18T12:11:33.034Z,81.51
2022-08-18T12:14:31.271Z,81.87
2022-08-18T12:17:00.123Z,81.99
2022-08-18T12:19:34.460Z,82.20
2022-08-18T12:22:03.906Z,81.12
2022-08-18T12:24:40.091Z,80.09
2022-08-18T12:27:21.475Z,78.29
2022-08-18T12:29:55.312Z,77.27
2022-08-18T12:32:41.368Z,76.70
2022-08-18T12:35:15.351Z,76.50
2022-08-18T12:38:11.148Z,75.15
2022-08-18T12:40:33.607Z,75.03
2022-08-18T12:43:00.080Z,73.72
2022-08-18T12:45:27.906Z,71.87
2022-08-18T12:48:09.070Z,72.54
2022-08-18T12:50:49.685Z,70.67
2022-08-18T12:53:30.655Z,72.12
2022-08-18T12:56:46.237Z,68.23
2022-08-18T12:59:19.071Z,69.56
2022-08-18T13:01:46.042Z,67.18
2022-08-18T13:04:14.079Z,65.80
2022-08-18T13:06:59.565Z,65.66
2022-08-18T13:09:53.495Z,64.35
2022-08-18T13:12:22.011Z,63.45
2022-08-18T13:14:51.226Z,64.07
2022-08-18T13:17:29.136Z,64.66
2022-08-18T13:20:06.078Z,64.92
2022-08-18T13:22:33.367Z,65.06
2022-08-18T13:25:08.097Z,64.21
2022-08-18T13:27:37.241Z,63.35
2022-08-18T13:30:31.226Z,64.07
2022-08-18T13:33:05.712Z,62.93
2022-08-18T13:35:55.134Z,62.96
2022-08-18T13:38:27.875Z,60.10
2022-08-18T13:41:06.280Z,62.08
2022-08-18T13:43:42.006Z,61.85
2022-08-18T13:46:13.261Z,62.55
2022-08-18T13:48:43.292Z,62.33
2022-08-18T13:51:17.503Z,60.10
2022-08-18T13:53:57.790Z,60.38
2022-08-18T13:56:35.162Z,60.22
2022-08-18T13:59:04.815Z,60.81
2022-08-18T14:01:45.302Z,61.28
2022-08-18T14:04:20.742Z,59.44
2022-08-18T14:07:11.833Z,59.38
2022-08-18T14:09:44.985Z,59.80
2022-08-18T14:12:33.446Z,60.22
2022-08-18T14:15:00.097Z,60.28
2022-08-18T14:17:27.229Z,61.36
2022-08-18T14:20:22.393Z,60.95
2022-08-18T14:23:23.532Z,62.02
2022-08-18T14:26:17.163Z,61.39
2022-08-18T14:28:47.548Z,60.45
2022-08-18T14:31:14.690Z,60.92
2022-08-18T14:33:50.880Z,60.19
2022-08-18T14:36:19.953Z,60.65
2022-08-18T14:38:46.405Z,61.77
2022-08-18T14:41:19.089Z,61.07
2022-08-18T14:43:50.822Z,61.01
2022-08-18T14:46:34.766Z,60.00
2022-08-18T14:49:04.005Z,60.48
2022-08-18T14:51:33.388Z,60.20
2022-08-18T14:54:03.213Z,60.71
2022-08-18T14:56:33.745Z,59.78
2022-08-18T14:59:16.188Z,59.87
2022-08-18T15:01:47.930Z,59.67
2022-08-18T15:04:23.142Z,59.26
2022-08-18T15:06:56.841Z,59.89
2022-08-18T15:09:32.178Z,60.04
2022-08-18T15:11:59.796Z,59.72
2022-08-18T15:14:36.360Z,59.58
2022-08-18T15:17:13.160Z,59.06
2022-08-18T15:19:59.888Z,58.12
2022-08-18T15:22:46.368Z,57.69
2022-08-18T15:25:56.585Z,56.54
2022-08-18T15:28:27.062Z,56.65
2022-08-18T15:33:41.966Z,56.81
2022-08-18T15:36:10.059Z,56.50
2022-08-18T15:38:37.064Z,55.03
2022-08-18T15:41:06.150Z,56.24
2022-08-18T15:43:45.857Z,55.94
2022-08-18T15:46:14.060Z,56.57
2022-08-18T15:48:43.745Z,56.01
2022-08-18T15:51:12.530Z,56.61
2022-08-18T15:53:44.621Z,56.01
2022-08-18T15:56:31.570Z,55.03
2022-08-18T15:59:00.579Z,55.02
2022-08-18T16:01:32.402Z,55.75
2022-08-18T16:04:01.583Z,57.47
2022-08-18T16:06:54.231Z,58.16
2022-08-18T16:09:25.177Z,57.07
2022-08-18T16:11:51.588Z,57.41
2022-08-18T16:14:17.971Z,56.83
2022-08-18T16:16:44.512Z,56.56
2022-08-18T16:19:13.683Z,56.67
2022-08-18T16:21:40.411Z,56.80
2022-08-18T16:24:08.249Z,56.25
2022-08-18T16:26:34.883Z,56.05
2022-08-18T16:29:02.011Z,55.91
2022-08-18T16:31:30.840Z,55.45
2022-08-18T16:34:02.321Z,55.08
2022-08-18T16:36:28.689Z,54.59
2022-08-18T16:39:04.253Z,55.25
2022-08-18T16:41:32.935Z,54.93
2022-08-18T16:43:59.513Z,54.75
2022-08-18T16:46:28.017Z,54.35
2022-08-18T16:48:57.426Z,54.71
2022-08-18T16:51:31.794Z,54.63
2022-08-18T16:53:59.451Z,54.63
2022-08-18T16:56:31.486Z,54.22
2022-08-18T16:59:23.370Z,55.71
2022-08-18T17:02:08.649Z,55.51
2022-08-18T17:04:41.270Z,55.29
2022-08-18T17:07:10.242Z,54.91
2022-08-18T17:09:43.299Z,54.94
2022-08-18T17:12:10.145Z,54.66
2022-08-18T17:14:43.288Z,55.88
2022-08-18T17:17:09.809Z,55.08
2022-08-18T17:19:44.303Z,54.95
2022-08-18T17:22:10.880Z,54.39
2022-08-18T17:24:37.913Z,54.73
2022-08-18T17:27:26.246Z,55.74
2022-08-18T17:29:55.435Z,54.84
2022-08-18T17:32:32.364Z,55.52
2022-08-18T17:35:03.900Z,55.11
2022-08-18T17:37:39.313Z,53.85
2022-08-18T17:40:20.982Z,53.41
2022-08-18T17:42:56.314Z,54.07
2022-08-18T17:45:23.392Z,53.84
2022-08-18T17:48:19.425Z,54.67
2022-08-18T17:51:23.068Z,54.78
2022-08-18T17:53:50.801Z,54.95
2022-08-18T17:56:21.984Z,55.06
2022-08-18T17:58:58.051Z,54.28
2022-08-18T18:01:30.007Z,54.06
2022-08-18T18:03:57.272Z,54.47
2022-08-18T18:06:43.510Z,54.83
2022-08-18T18:09:21.665Z,53.28
2022-08-18T18:11:48.224Z,53.76
2022-08-18T18:14:28.270Z,55.42
2022-08-18T18:17:07.132Z,54.96
2022-08-18T18:19:34.975Z,54.49
2022-08-18T18:22:12.809Z,53.66
2022-08-18T18:24:47.550Z,56.01
2022-08-18T18:27:29.244Z,54.33
2022-08-18T18:30:05.888Z,53.94
2022-08-18T18:32:59.097Z,54.29
2022-08-18T18:35:54.702Z,54.83
2022-08-18T18:38:26.214Z,54.32
2022-08-18T18:41:02.656Z,53.92
2022-08-18T18:43:42.813Z,54.79
2022-08-18T18:46:18.839Z,54.99
2022-08-18T18:48:54.893Z,54.40
2022-08-18T18:52:00.756Z,54.67
2022-08-18T18:54:53.607Z,55.41
2022-08-18T18:57:32.903Z,54.86
2022-08-18T19:00:20.317Z,54.18
2022-08-18T19:03:07.931Z,54.24
2022-08-18T19:06:08.411Z,54.96
2022-08-18T19:08:53.953Z,54.75
2022-08-18T19:11:38.956Z,54.98
2022-08-18T19:14:13.936Z,54.88
2022-08-18T19:16:47.430Z,55.03
2022-08-18T19:19:39.244Z,55.48
2022-08-18T19:22:25.387Z,54.97
2022-08-18T19:25:13.226Z,55.07
2022-08-18T19:27:56.195Z,55.27
2022-08-18T19:30:23.552Z,55.15
2022-08-18T19:33:00.306Z,55.55
2022-08-18T19:35:54.447Z,56.21
2022-08-18T19:38:33.960Z,55.44
2022-08-18T19:41:05.411Z,56.13
2022-08-18T19:43:37.805Z,55.85
2022-08-18T19:46:34.626Z,56.62
2022-08-18T19:49:17.002Z,56.20
2022-08-18T19:51:45.991Z,56.25
2022-08-18T19:54:46.028Z,56.96
2022-08-18T19:57:31.097Z,57.15
2022-08-18T20:00:14.170Z,56.86
2022-08-18T20:02:44.186Z,57.45
2022-08-18T20:05:21.714Z,57.34
2022-08-18T20:08:14.002Z,57.57
2022-08-18T20:11:08.454Z,57.74
2022-08-18T20:13:43.232Z,58.45
2022-08-18T20:16:44.075Z,58.10
2022-08-18T20:19:42.441Z,58.28
2022-08-18T20:22:33.447Z,58.27
2022-08-18T20:25:21.848Z,58.77
2022-08-18T20:28:01.500Z,58.21
2022-08-18T20:30:54.245Z,59.64
2022-08-18T20:33:25.727Z,59.23
2022-08-18T20:36:19.821Z,59.50
2022-08-18T20:38:53.131Z,60.13
2022-08-18T20:41:29.474Z,59.73
2022-08-18T20:44:34.437Z,59.82
2022-08-18T20:47:40.060Z,59.70
2022-08-18T20:50:31.365Z,60.83
2022-08-18T20:53:09.019Z,59.93
2022-08-18T20:55:49.247Z,61.00
2022-08-18T20:58:23.504Z,61.44
2022-08-18T21:00:54.311Z,60.72
2022-08-18T21:03:21.321Z,60.52
2022-08-18T21:05:56.804Z,60.66
2022-08-18T21:08:33.000Z,60.71
2022-08-18T21:11:11.486Z,60.61
2022-08-18T21:13:40.893Z,61.09
2022-08-18T21:16:25.959Z,61.85
2022-08-18T21:19:13.767Z,61.12
2022-08-18T21:21:49.212Z,61.62
2022-08-18T21:24:26.740Z,61.65
2022-08-18T21:27:04.579Z,62.00
2022-08-18T21:29:47.076Z,61.97
2022-08-18T21:32:32.498Z,62.13
2022-08-18T21:35:07.909Z,62.64
2022-08-18T21:37:41.219Z,62.15
2022-08-18T21:40:10.718Z,62.64
2022-08-18T21:42:44.637Z,63.02
2022-08-18T21:45:18.493Z,62.85
2022-08-18T21:48:12.500Z,63.27
2022-08-18T21:50:51.361Z,63.40
2022-08-18T21:53:25.765Z,63.64
2022-08-18T21:55:58.768Z,64.40
2022-08-18T21:58:32.584Z,63.66
2022-08-18T22:01:23.539Z,64.49
2022-08-18T22:03:58.534Z,64.62
2022-08-18T22:06:46.623Z,65.50
2022-08-18T22:09:54.683Z,64.95
2022-08-18T22:12:42.503Z,66.24
2022-08-18T22:15:26.569Z,65.80
2022-08-18T22:18:02.446Z,65.27
2022-08-18T22:20:47.520Z,67.03
2022-08-18T22:23:32.511Z,66.83
2022-08-18T22:26:37.524Z,67.95
2022-08-18T22:29:09.941Z,67.56
2022-08-18T22:31:49.544Z,67.54
2022-08-18T22:34:30.374Z,68.53
2022-08-18T22:37:07.540Z,68.12
2022-08-18T22:39:39.991Z,69.12
2022-08-18T22:42:07.982Z,69.04
2022-08-18T22:44:34.385Z,69.23
2022-08-18T22:47:03.221Z,69.87
2022-08-18T22:49:30.405Z,69.92
2022-08-18T22:51:57.766Z,69.95
2022-08-18T22:54:24.321Z,70.15
2022-08-18T22:56:55.160Z,70.74
2022-08-18T22:59:25.520Z,71.30
2022-08-18T23:01:53.947Z,71.16
2022-08-18T23:04:22.955Z,71.71
2022-08-18T23:06:52.447Z,72.53
2022-08-18T23:09:30.652Z,71.78
2022-08-18T23:12:00.570Z,72.81
2022-08-18T23:14:32.900Z,73.40
2022-08-18T23:17:01.538Z,73.33
2022-08-18T23:19:40.786Z,73.62
2022-08-18T23:22:11.047Z,73.97
2022-08-18T23:24:38.280Z,74.13
2022-08-18T23:27:06.292Z,75.06
2022-08-18T23:29:36.528Z,74.27
2022-08-18T23:32:07.636Z,74.42
2022-08-18T23:34:37.416Z,75.04
2022-08-18T23:37:04.871Z,74.38
2022-08-18T23:39:33.542Z,74.21
2022-08-18T23:42:06.691Z,74.10
2022-08-18T23:44:33.748Z,73.86
2022-08-18T23:47:06.611Z,71.23
2022-08-18T23:49:33.829Z,73.09
2022-08-18T23:52:04.071Z,74.22
2022-08-18T23:54:33.586Z,72.99
2022-08-18T23:57:02.671Z,71.82
2022-08-18T23:59:33.932Z,72.93
